createdAt,value
2023-03-12T00:00:21.354Z,86.80
2023-03-12T00:02:54.453Z,87.30
2023-03-12T00:05:29.628Z,86.84
2023-03-12T00:08:02.714Z,86.96
2023-03-12T00:10:36.668Z,87.09
2023-03-12T00:13:10.457Z,87.79
2023-03-12T00:15:43.622Z,86.84
2023-03-12T00:18:16.730Z,88.04
2023-03-12T00:20:56.880Z,88.36
2023-03-12T00:23:31.143Z,87.06
2023-03-12T00:26:06.824Z,87.39
2023-03-12T00:28:40.654Z,87.35
2023-03-12T00:31:20.602Z,88.21
2023-03-12T00:33:54.844Z,87.04
2023-03-12T00:36:32.672Z,87.99
2023-03-12T00:39:06.174Z,89.44
2023-03-12T00:41:39.188Z,87.95
2023-03-12T00:44:12.215Z,88.22
2023-03-12T00:46:45.380Z,89.28
2023-03-12T00:49:18.649Z,88.00
2023-03-12T00:51:54.083Z,88.61
2023-03-12T00:54:27.229Z,90.23
2023-03-12T00:57:00.295Z,89.86
2023-03-12T00:59:33.790Z,89.98
2023-03-12T01:02:07.178Z,90.26
2023-03-12T01:04:40.207Z,90.72
2023-03-12T01:07:14.832Z,90.10
2023-03-12T01:09:47.881Z,89.80
2023-03-12T01:12:20.976Z,88.67
2023-03-12T01:14:54.169Z,89.89
2023-03-12T01:17:27.539Z,90.39
2023-03-12T01:20:00.678Z,89.11
2023-03-12T01:22:35.249Z,90.08
2023-03-12T01:25:09.824Z,90.90
2023-03-12T01:27:42.925Z,89.39
2023-03-12T01:30:16.479Z,90.07
2023-03-12T01:32:49.552Z,89.94
2023-03-12T01:35:22.626Z,89.68
2023-03-12T01:37:57.243Z,90.27
2023-03-12T01:40:30.309Z,90.95
2023-03-12T01:43:30.145Z,90.81
2023-03-12T01:46:27.522Z,91.36
2023-03-12T01:49:08.145Z,91.30
2023-03-12T01:51:45.565Z,91.13
2023-03-12T01:54:24.401Z,91.12
2023-03-12T01:56:58.322Z,91.68
2023-03-12T01:59:36.678Z,90.58
2023-03-12T02:02:10.556Z,92.62
2023-03-12T02:04:46.968Z,91.88
2023-03-12T02:07:20.325Z,92.28
2023-03-12T02:09:54.743Z,90.74
2023-03-12T02:12:27.916Z,91.68
2023-03-12T02:15:01.121Z,91.14
2023-03-12T02:17:34.758Z,90.25
2023-03-12T02:20:17.339Z,90.92
2023-03-12T02:22:58.031Z,90.48
2023-03-12T02:25:38.719Z,91.22
2023-03-12T02:28:16.471Z,90.54
2023-03-12T02:30:53.076Z,90.88
2023-03-12T02:33:26.810Z,90.37
2023-03-12T02:35:59.860Z,90.00
2023-03-12T02:38:43.810Z,91.30
2023-03-12T02:41:22.835Z,90.18
2023-03-12T02:44:02.704Z,91.21
2023-03-12T02:46:41.713Z,90.55
2023-03-12T02:49:15.933Z,91.33
2023-03-12T02:51:49.280Z,90.69
2023-03-12T02:54:24.251Z,91.77
2023-03-12T02:56:59.165Z,92.36
2023-03-12T02:59:32.295Z,90.82
2023-03-12T03:02:06.913Z,89.23
2023-03-12T03:04:40.328Z,89.76
2023-03-12T03:07:14.849Z,91.06
2023-03-12T03:09:47.905Z,91.11
2023-03-12T03:12:22.835Z,91.33
2023-03-12T03:14:55.845Z,90.33
2023-03-12T03:17:30.538Z,91.00
2023-03-12T03:20:08.350Z,91.31
2023-03-12T03:22:41.429Z,91.12
2023-03-12T03:25:14.529Z,89.52
2023-03-12T03:27:48.966Z,90.09
2023-03-12T03:30:22.347Z,89.31
2023-03-12T03:32:55.404Z,89.65
2023-03-12T03:35:28.462Z,90.95
2023-03-12T03:38:01.562Z,91.53
2023-03-12T03:40:34.719Z,90.31
2023-03-12T03:43:09.111Z,90.69
2023-03-12T03:45:44.789Z,91.07
2023-03-12T03:48:17.802Z,89.90
2023-03-12T03:50:50.881Z,90.60
2023-03-12T03:53:24.005Z,89.33
2023-03-12T03:55:57.328Z,90.15
2023-03-12T03:58:31.694Z,88.82
2023-03-12T04:01:06.039Z,89.27
2023-03-12T04:03:39.106Z,89.34
2023-03-12T04:06:13.252Z,88.74
2023-03-12T04:08:46.339Z,89.82
2023-03-12T04:11:22.200Z,89.42
2023-03-12T04:13:56.600Z,90.47
2023-03-12T04:16:30.358Z,88.65
2023-03-12T04:19:03.425Z,89.93
2023-03-12T04:21:39.470Z,89.56
2023-03-12T04:24:17.140Z,88.68
2023-03-12T04:26:51.665Z,88.45
2023-03-12T04:29:26.296Z,88.55
2023-03-12T04:31:59.390Z,89.93
2023-03-12T04:34:32.559Z,89.88
2023-03-12T04:37:05.704Z,89.67
2023-03-12T04:39:38.814Z,89.05
2023-03-12T04:42:12.307Z,89.86
2023-03-12T04:44:46.725Z,89.11
2023-03-12T04:47:19.812Z,89.38
2023-03-12T04:49:52.845Z,88.68
2023-03-12T04:52:26.791Z,88.17
2023-03-12T04:55:00.544Z,89.01
2023-03-12T04:57:33.612Z,89.37
2023-03-12T05:00:13.329Z,88.37
2023-03-12T05:02:46.397Z,88.64
2023-03-12T05:05:19.501Z,88.20
2023-03-12T05:07:52.805Z,88.25
2023-03-12T05:10:25.923Z,89.53
2023-03-12T05:12:58.992Z,89.03
2023-03-12T05:15:33.367Z,89.22
2023-03-12T05:18:06.464Z,87.86
2023-03-12T05:20:39.782Z,88.84
2023-03-12T05:23:12.847Z,87.74
2023-03-12T05:25:45.876Z,88.92
2023-03-12T05:28:20.190Z,88.63
2023-03-12T05:30:55.738Z,89.79
2023-03-12T05:33:29.874Z,89.41
2023-03-12T05:36:03.005Z,89.22
2023-03-12T05:38:36.503Z,88.90
2023-03-12T05:41:21.412Z,89.13
2023-03-12T05:43:56.630Z,87.98
2023-03-12T05:46:31.128Z,88.73
2023-03-12T05:49:04.184Z,88.94
2023-03-12T05:51:37.816Z,86.64
2023-03-12T05:54:11.145Z,87.25
2023-03-12T05:56:44.700Z,88.16
2023-03-12T05:59:17.826Z,87.48
2023-03-12T06:01:52.262Z,88.49
2023-03-12T06:04:25.319Z,87.95
2023-03-12T06:06:58.517Z,89.06
2023-03-12T06:09:31.558Z,88.25
2023-03-12T06:12:05.255Z,87.78
2023-03-12T06:14:38.302Z,86.58
2023-03-12T06:17:12.673Z,86.93
2023-03-12T06:19:45.718Z,87.26
2023-03-12T06:22:18.779Z,86.55
2023-03-12T06:24:51.936Z,86.79
2023-03-12T06:27:25.313Z,87.47
2023-03-12T06:29:58.431Z,86.92
2023-03-12T06:32:32.902Z,86.84
2023-03-12T06:35:07.080Z,86.98
2023-03-12T06:37:40.120Z,87.06
2023-03-12T06:40:14.170Z,86.90
2023-03-12T06:42:47.253Z,87.09
2023-03-12T06:45:20.311Z,87.02
2023-03-12T06:47:54.698Z,87.71
2023-03-12T06:50:27.755Z,88.08
2023-03-12T06:53:00.758Z,88.79
2023-03-12T06:55:33.798Z,86.89
2023-03-12T06:58:06.991Z,88.13
2023-03-12T07:00:40.085Z,88.75
2023-03-12T07:03:14.560Z,90.07
2023-03-12T07:05:49.923Z,87.85
2023-03-12T07:08:23.144Z,87.74
2023-03-12T07:10:56.218Z,88.39
2023-03-12T07:13:29.250Z,87.81
2023-03-12T07:16:02.434Z,87.76
2023-03-12T07:18:37.129Z,87.22
2023-03-12T07:21:10.319Z,87.23
2023-03-12T07:23:43.350Z,87.54
2023-03-12T07:26:16.437Z,87.27
2023-03-12T07:28:49.454Z,87.23
2023-03-12T07:31:22.534Z,87.61
2023-03-12T07:33:57.274Z,85.98
2023-03-12T07:36:30.831Z,87.10
2023-03-12T07:39:04.576Z,86.67
2023-03-12T07:41:39.015Z,87.10
2023-03-12T07:44:12.155Z,88.02
2023-03-12T07:46:45.773Z,88.49
2023-03-12T07:49:20.702Z,89.51
2023-03-12T07:51:53.758Z,89.98
2023-03-12T07:54:30.643Z,90.54
2023-03-12T07:57:03.852Z,91.45
2023-03-12T07:59:36.918Z,92.55
2023-03-12T08:02:11.434Z,93.70
2023-03-12T08:04:46.106Z,95.21
2023-03-12T08:07:19.347Z,95.70
2023-03-12T08:09:52.562Z,95.40
2023-03-12T08:12:25.610Z,95.42
2023-03-12T08:14:58.691Z,96.65
2023-03-12T08:17:31.782Z,98.45
2023-03-12T08:20:09.689Z,98.96
2023-03-12T08:22:42.782Z,98.65
2023-03-12T08:25:16.122Z,99.30
2023-03-12T08:27:49.149Z,99.57
2023-03-12T08:30:22.542Z,100.00
2023-03-12T08:32:55.559Z,100.00
2023-03-12T08:35:30.282Z,100.00
2023-03-12T08:38:03.332Z,100.00
2023-03-12T08:40:36.361Z,100.00
2023-03-12T08:43:09.495Z,100.00
2023-03-12T08:45:42.493Z,100.00
2023-03-12T08:48:15.714Z,100.00
2023-03-12T08:50:50.087Z,100.00
2023-03-12T08:53:23.261Z,100.00
2023-03-12T08:55:56.945Z,100.00
2023-03-12T08:58:31.066Z,100.00
2023-03-12T09:01:09.593Z,100.00
2023-03-12T09:03:42.724Z,100.00
2023-03-12T09:06:17.164Z,100.00
2023-03-12T09:08:51.650Z,100.00
2023-03-12T09:11:24.905Z,100.00
2023-03-12T09:14:28.351Z,100.00
2023-03-12T09:16:51.256Z,100.00
2023-03-12T09:19:24.567Z,100.00
2023-03-12T09:21:59.100Z,100.00
2023-03-12T09:24:32.138Z,100.00
2023-03-12T09:27:05.305Z,100.00
2023-03-12T09:29:49.664Z,100.00
2023-03-12T09:32:30.348Z,100.00
2023-03-12T09:35:05.231Z,100.00
2023-03-12T09:37:39.698Z,100.00
2023-03-12T09:40:20.466Z,100.00
2023-03-12T09:42:57.384Z,100.00
2023-03-12T09:45:36.754Z,100.00
2023-03-12T09:48:17.611Z,100.00
2023-03-12T09:50:53.031Z,100.00
2023-03-12T09:53:33.037Z,100.00
2023-03-12T09:56:10.209Z,100.00
2023-03-12T09:58:44.551Z,100.00
2023-03-12T10:01:36.471Z,100.00
2023-03-12T10:04:27.863Z,100.00
2023-03-12T10:07:09.979Z,100.00
2023-03-12T10:10:22.344Z,100.00
2023-03-12T10:13:20.837Z,100.00
2023-03-12T10:16:10.699Z,100.00
2023-03-12T10:19:15.381Z,100.00
2023-03-12T10:21:56.248Z,100.00
2023-03-12T10:24:46.496Z,100.00
2023-03-12T10:27:25.287Z,100.00
2023-03-12T10:29:59.639Z,100.00
2023-03-12T10:32:40.635Z,100.00
2023-03-12T10:35:21.720Z,100.00
2023-03-12T10:37:58.442Z,100.00
2023-03-12T10:40:34.996Z,100.00
2023-03-12T10:43:09.888Z,100.00
2023-03-12T10:45:51.776Z,100.00
2023-03-12T10:48:26.949Z,100.00
2023-03-12T10:51:05.852Z,100.00
2023-03-12T10:53:42.816Z,100.00
2023-03-12T10:56:18.544Z,100.00
2023-03-12T10:58:55.139Z,100.00
2023-03-12T11:01:30.723Z,100.00
2023-03-12T11:04:17.761Z,100.00
2023-03-12T11:07:17.800Z,100.00
2023-03-12T11:10:18.834Z,100.00
2023-03-12T11:13:04.793Z,100.00
2023-03-12T11:15:44.369Z,100.00
2023-03-12T11:18:30.572Z,100.00
2023-03-12T11:21:19.547Z,100.00
2023-03-12T11:24:09.200Z,100.00
2023-03-12T11:26:52.164Z,100.00
2023-03-12T11:29:31.461Z,100.00
2023-03-12T11:32:13.141Z,100.00
2023-03-12T11:34:49.553Z,100.00
2023-03-12T11:37:32.854Z,100.00
2023-03-12T11:40:19.783Z,100.00
2023-03-12T11:43:17.727Z,100.00
2023-03-12T11:46:09.568Z,100.00
2023-03-12T11:48:58.152Z,100.00
2023-03-12T11:51:42.250Z,100.00
2023-03-12T11:54:35.549Z,100.00
2023-03-12T11:57:20.664Z,100.00
2023-03-12T12:00:12.574Z,100.00
2023-03-12T12:03:34.950Z,100.00
2023-03-12T12:06:14.518Z,100.00
2023-03-12T12:09:05.340Z,100.00
2023-03-12T12:11:55.720Z,100.00
2023-03-12T12:14:57.860Z,100.00
2023-03-12T12:22:05.028Z,100.00
2023-03-12T12:24:54.599Z,100.00
2023-03-12T12:27:30.684Z,100.00
2023-03-12T12:33:22.727Z,100.00
2023-03-12T12:35:55.791Z,100.00
2023-03-12T12:38:35.902Z,100.00
2023-03-12T12:41:12.650Z,100.00
2023-03-12T12:43:50.364Z,100.00
2023-03-12T12:46:28.067Z,100.00
2023-03-12T12:53:22.580Z,100.00
2023-03-12T12:56:09.205Z,100.00
2023-03-12T12:59:21.397Z,100.00
2023-03-12T13:01:57.112Z,100.00
2023-03-12T13:04:34.924Z,100.00
2023-03-12T13:07:34.918Z,100.00
2023-03-12T13:10:48.424Z,100.00
2023-03-12T13:13:31.773Z,100.00
2023-03-12T13:16:29.711Z,100.00
2023-03-12T13:19:08.229Z,100.00
2023-03-12T13:21:43.044Z,100.00
2023-03-12T13:24:25.112Z,97.75
2023-03-12T13:27:04.916Z,96.58
2023-03-12T13:29:42.376Z,97.07
2023-03-12T13:32:54.056Z,95.86
2023-03-12T13:35:33.620Z,94.73
2023-03-12T13:38:13.322Z,90.72
2023-03-12T13:41:06.283Z,92.63
2023-03-12T13:43:57.216Z,94.90
2023-03-12T13:46:45.673Z,95.65
2023-03-12T13:49:20.896Z,95.07
2023-03-12T13:52:22.233Z,95.47
2023-03-12T13:55:02.513Z,96.81
2023-03-12T13:57:43.342Z,98.81
2023-03-12T14:00:22.152Z,100.00
2023-03-12T14:03:01.864Z,100.00
2023-03-12T14:05:47.005Z,100.00
2023-03-12T14:08:40.988Z,100.00
2023-03-12T14:11:40.960Z,100.00
2023-03-12T14:14:52.252Z,100.00
2023-03-12T14:17:27.942Z,100.00
2023-03-12T14:20:07.346Z,100.00
2023-03-12T14:22:42.739Z,100.00
2023-03-12T14:25:21.235Z,100.00
2023-03-12T14:27:54.656Z,100.00
2023-03-12T14:30:44.041Z,100.00
2023-03-12T14:33:17.721Z,100.00
2023-03-12T14:35:58.749Z,100.00
2023-03-12T14:38:35.749Z,100.00
2023-03-12T14:41:14.542Z,100.00
2023-03-12T14:43:47.676Z,100.00
2023-03-12T14:46:22.631Z,100.00
2023-03-12T14:48:56.317Z,100.00
2023-03-12T14:51:32.173Z,100.00
2023-03-12T14:54:05.518Z,100.00
2023-03-12T14:56:38.421Z,100.00
2023-03-12T14:59:28.879Z,100.00
2023-03-12T15:02:08.787Z,100.00
2023-03-12T15:04:42.476Z,100.00
2023-03-12T15:07:22.506Z,100.00
2023-03-12T15:09:55.668Z,100.00
2023-03-12T15:12:34.599Z,100.00
2023-03-12T15:15:10.935Z,100.00
2023-03-12T15:17:44.177Z,100.00
2023-03-12T15:20:18.292Z,100.00
2023-03-12T15:22:53.639Z,100.00
2023-03-12T15:25:30.297Z,100.00
2023-03-12T15:28:08.305Z,100.00
2023-03-12T15:30:41.851Z,100.00
2023-03-12T15:33:25.558Z,100.00
2023-03-12T15:36:03.338Z,100.00
2023-03-12T15:38:39.239Z,100.00
2023-03-12T15:41:23.345Z,100.00
2023-03-12T15:43:59.599Z,99.72
2023-03-12T15:46:32.973Z,98.94
2023-03-12T15:49:06.286Z,99.80
2023-03-12T15:51:40.497Z,100.00
2023-03-12T15:54:28.250Z,97.42
2023-03-12T15:57:23.030Z,98.08
2023-03-12T16:00:22.115Z,98.10
2023-03-12T16:02:59.006Z,98.88
2023-03-12T16:05:34.408Z,98.78
2023-03-12T16:08:16.714Z,99.41
2023-03-12T16:10:51.782Z,99.68
2023-03-12T16:13:31.211Z,99.65
2023-03-12T16:16:04.655Z,99.74
2023-03-12T16:18:37.712Z,100.00
2023-03-12T16:21:11.417Z,100.00
2023-03-12T16:23:44.421Z,100.00
2023-03-12T16:26:19.520Z,100.00
2023-03-12T16:28:52.647Z,100.00
2023-03-12T16:31:25.763Z,100.00
2023-03-12T16:33:59.161Z,100.00
2023-03-12T16:36:32.196Z,100.00
2023-03-12T16:39:05.593Z,100.00
2023-03-12T16:41:40.427Z,100.00
2023-03-12T16:44:19.047Z,100.00
2023-03-12T16:46:52.182Z,100.00
2023-03-12T16:49:25.348Z,100.00
2023-03-12T16:51:58.929Z,100.00
2023-03-12T16:54:31.935Z,100.00
2023-03-12T16:57:06.309Z,100.00
2023-03-12T16:59:39.602Z,100.00
2023-03-12T17:02:18.073Z,100.00
2023-03-12T17:04:52.425Z,100.00
2023-03-12T17:07:25.509Z,100.00
2023-03-12T17:09:58.507Z,100.00
2023-03-12T17:12:36.263Z,100.00
2023-03-12T17:15:16.431Z,100.00
2023-03-12T17:17:49.904Z,100.00
2023-03-12T17:20:24.917Z,100.00
2023-03-12T17:22:58.359Z,100.00
2023-03-12T17:25:35.047Z,100.00
2023-03-12T17:28:10.941Z,100.00
2023-03-12T17:30:44.506Z,100.00
2023-03-12T17:33:19.564Z,100.00
2023-03-12T17:35:59.642Z,100.00
2023-03-12T17:38:33.222Z,100.00
2023-03-12T17:41:23.494Z,100.00
2023-03-12T17:44:02.082Z,100.00
2023-03-12T17:46:39.146Z,100.00
2023-03-12T17:49:13.692Z,100.00
2023-03-12T17:51:46.839Z,100.00
2023-03-12T17:54:19.891Z,100.00
2023-03-12T17:56:52.962Z,100.00
2023-03-12T17:59:27.295Z,99.94
2023-03-12T18:02:00.347Z,100.00
2023-03-12T18:04:33.758Z,100.00
2023-03-12T18:07:07.120Z,99.99
2023-03-12T18:09:40.126Z,100.00
2023-03-12T18:12:13.313Z,98.67
2023-03-12T18:14:48.406Z,99.09
2023-03-12T18:17:21.471Z,98.87
2023-03-12T18:19:54.515Z,99.39
2023-03-12T18:22:27.740Z,99.88
2023-03-12T18:25:00.852Z,100.00
2023-03-12T18:27:33.910Z,99.98
2023-03-12T18:30:11.503Z,99.78
2023-03-12T18:32:44.596Z,99.77
2023-03-12T18:35:18.299Z,99.55
2023-03-12T18:37:51.997Z,99.14
2023-03-12T18:40:25.339Z,98.70
2023-03-12T18:42:59.224Z,98.23
2023-03-12T18:45:33.624Z,97.73
2023-03-12T18:48:07.337Z,97.11
2023-03-12T18:50:40.401Z,97.48
2023-03-12T18:53:14.259Z,97.95
2023-03-12T18:55:53.664Z,97.59
2023-03-12T18:58:28.785Z,97.14
2023-03-12T19:01:03.193Z,96.79
2023-03-12T19:03:37.213Z,96.83
2023-03-12T19:06:12.671Z,95.85
2023-03-12T19:08:45.821Z,95.32
2023-03-12T19:11:19.185Z,95.51
2023-03-12T19:13:53.158Z,94.74
2023-03-12T19:16:27.680Z,94.59
2023-03-12T19:19:00.906Z,95.44
2023-03-12T19:21:33.996Z,94.73
2023-03-12T19:24:07.288Z,95.24
2023-03-12T19:26:40.308Z,93.91
2023-03-12T19:29:15.140Z,94.84
2023-03-12T19:31:49.653Z,94.70
2023-03-12T19:34:23.198Z,94.63
2023-03-12T19:36:56.329Z,94.32
2023-03-12T19:39:29.528Z,93.17
2023-03-12T19:42:02.568Z,92.79
2023-03-12T19:44:39.008Z,93.84
2023-03-12T19:47:13.422Z,92.88
2023-03-12T19:49:47.859Z,91.87
2023-03-12T19:52:20.882Z,93.74
2023-03-12T19:55:03.911Z,94.25
2023-03-12T19:57:37.982Z,93.28
2023-03-12T20:00:12.792Z,94.15
2023-03-12T20:02:47.518Z,94.51
2023-03-12T20:05:20.724Z,94.71
2023-03-12T20:07:53.735Z,93.92
2023-03-12T20:10:28.910Z,93.86
2023-03-12T20:13:01.933Z,93.15
2023-03-12T20:15:34.968Z,91.94
2023-03-12T20:18:09.507Z,91.80
2023-03-12T20:20:42.815Z,90.66
2023-03-12T20:23:16.005Z,91.61
2023-03-12T20:25:51.168Z,89.83
2023-03-12T20:28:24.326Z,89.74
2023-03-12T20:30:57.422Z,90.26
2023-03-12T20:33:31.821Z,89.33
2023-03-12T20:36:07.484Z,87.58
2023-03-12T20:38:41.154Z,88.43
2023-03-12T20:41:15.442Z,88.19
2023-03-12T20:43:48.623Z,88.05
2023-03-12T20:46:21.920Z,88.21
2023-03-12T20:48:57.493Z,87.84
2023-03-12T20:51:30.587Z,87.41
2023-03-12T20:54:04.504Z,86.96
2023-03-12T20:56:39.124Z,86.98
2023-03-12T20:59:12.394Z,87.16
2023-03-12T21:01:45.596Z,86.32
2023-03-12T21:04:20.024Z,86.89
2023-03-12T21:06:53.059Z,86.17
2023-03-12T21:09:26.293Z,86.19
2023-03-12T21:11:59.456Z,86.01
2023-03-12T21:14:32.638Z,86.57
2023-03-12T21:17:05.730Z,85.32
2023-03-12T21:19:40.925Z,85.64
2023-03-12T21:22:14.600Z,87.01
2023-03-12T21:24:48.339Z,87.00
2023-03-12T21:27:21.466Z,86.61
2023-03-12T21:29:54.703Z,85.97
2023-03-12T21:32:28.010Z,85.60
2023-03-12T21:35:02.445Z,86.88
2023-03-12T21:37:35.602Z,86.27
2023-03-12T21:40:10.788Z,86.68
2023-03-12T21:42:43.942Z,87.41
2023-03-12T21:45:17.239Z,86.80
2023-03-12T21:47:50.281Z,86.44
2023-03-12T21:50:24.755Z,86.93
2023-03-12T21:52:57.823Z,85.39
2023-03-12T21:55:30.800Z,84.66
2023-03-12T21:58:03.917Z,85.45
2023-03-12T22:00:36.975Z,86.74
2023-03-12T22:03:10.043Z,86.58
2023-03-12T22:05:44.488Z,86.46
2023-03-12T22:08:17.520Z,87.34
2023-03-12T22:10:50.603Z,87.71
2023-03-12T22:13:23.941Z,87.74
2023-03-12T22:15:59.568Z,88.40
2023-03-12T22:18:32.705Z,88.26
2023-03-12T22:21:07.755Z,87.95
2023-03-12T22:23:40.817Z,88.13
2023-03-12T22:26:13.870Z,88.44
2023-03-12T22:28:50.702Z,88.14
2023-03-12T22:31:26.534Z,89.46
2023-03-12T22:33:59.663Z,89.53
2023-03-12T22:36:34.076Z,88.53
2023-03-12T22:39:07.135Z,88.94
2023-03-12T22:41:40.243Z,88.68
2023-03-12T22:44:13.314Z,88.83
2023-03-12T22:46:46.461Z,88.65
2023-03-12T22:49:19.584Z,88.70
2023-03-12T22:51:53.938Z,89.43
2023-03-12T22:54:27.353Z,90.14
2023-03-12T22:57:00.626Z,89.89
2023-03-12T22:59:33.832Z,90.37
2023-03-12T23:02:07.038Z,90.54
2023-03-12T23:04:40.124Z,90.63
2023-03-12T23:07:16.868Z,90.67
2023-03-12T23:09:50.988Z,89.98
2023-03-12T23:12:24.034Z,90.32
2023-03-12T23:14:57.163Z,90.23
2023-03-12T23:17:30.267Z,91.10
2023-03-12T23:20:05.413Z,91.48
2023-03-12T23:22:39.958Z,91.71
2023-03-12T23:25:13.028Z,91.61
2023-03-12T23:27:46.090Z,92.09
2023-03-12T23:30:19.138Z,92.32
2023-03-12T23:32:52.203Z,92.81
2023-03-12T23:35:25.381Z,92.39
2023-03-12T23:38:00.012Z,92.49
2023-03-12T23:40:33.059Z,92.71
2023-03-12T23:43:06.080Z,92.84
2023-03-12T23:45:39.258Z,93.80
2023-03-12T23:48:12.667Z,94.47
2023-03-12T23:50:45.714Z,94.18
2023-03-12T23:53:20.379Z,93.93
2023-03-12T23:55:58.058Z,94.73
2023-03-12T23:58:31.434Z,95.37
